Time;durP1;ratioP1;P1;durP2;ratioP2;P2;SDS_P1;SDS_P2;PMS_P1;PMS_P2;Temp;Humidity;BMP_temperature;BMP_pressure;BME280_temperature;BME280_humidity;BME280_pressure;Samples;Min_cycle;Max_cycle;Signal;HPM_P1;HPM_P2
2022/03/20 00:02:25;;;;;;;;;3.00;3.00;;;;;-146.03;100.00;60875.16;5013744;28;45365;-81
2022/03/20 00:04:50;;;;;;;;;4.00;3.00;;;;;-146.03;100.00;60875.16;5013934;28;45465;-82
2022/03/20 00:07:16;;;;;;;;;4.00;2.00;;;;;-146.03;100.00;60875.16;5013326;28;45204;-82
2022/03/20 00:09:41;;;;;;;;;2.75;2.75;;;;;-146.03;100.00;60875.16;5012883;28;45449;-82
2022/03/20 00:12:07;;;;;;;;;2.25;2.25;;;;;-146.03;100.00;60875.16;5013229;28;45284;-82
2022/03/20 00:14:33;;;;;;;;;2.25;2.25;;;;;-146.03;100.00;60875.16;5013615;28;45347;-80
2022/03/20 00:16:58;;;;;;;;;4.00;2.25;;;;;-146.03;100.00;60875.16;5009752;28;45260;-81
2022/03/20 00:19:23;;;;;;;;;3.00;1.50;;;;;-146.03;100.00;60875.16;5007437;28;45536;-82
2022/03/20 00:21:49;;;;;;;;;3.25;3.00;;;;;-146.03;100.00;60875.16;5013207;28;46129;-82
2022/03/20 00:24:15;;;;;;;;;2.25;2.00;;;;;-146.03;100.00;60875.16;5013024;28;49839;-82
2022/03/20 00:26:42;;;;;;;;;4.50;3.00;;;;;-146.03;100.00;60875.16;5013272;28;45656;-82
2022/03/20 00:29:07;;;;;;;;;1.00;1.00;;;;;-146.03;100.00;60875.16;5014510;28;45369;-83
2022/03/20 00:31:33;;;;;;;;;1.25;1.25;;;;;-146.03;100.00;60875.16;5012748;28;45595;-83
2022/03/20 00:33:59;;;;;;;;;2.50;2.00;;;;;-146.03;100.00;60875.16;5010426;28;45545;-82
2022/03/20 00:36:25;;;;;;;;;3.50;2.00;;;;;-146.03;100.00;60875.16;5013188;28;45583;-82
2022/03/20 00:38:50;;;;;;;;;3.00;2.75;;;;;-146.03;100.00;60875.16;5011573;28;45612;-82
2022/03/20 00:41:16;;;;;;;;;3.00;3.00;;;;;-146.03;100.00;60875.16;5012241;28;46427;-82
2022/03/20 00:43:41;;;;;;;;;2.00;2.00;;;;;-146.03;100.00;60875.16;5009670;28;45451;-82
2022/03/20 00:46:09;;;;;;;;;3.50;3.50;;;;;-146.03;100.00;60875.16;5012491;28;46099;-82
2022/03/20 00:48:34;;;;;;;;;5.00;4.00;;;;;-146.03;100.00;60875.16;5014715;28;46258;-82
2022/03/20 00:51:06;;;;;;;;;3.00;3.00;;;;;-146.03;100.00;60875.16;5016269;28;45858;-82
2022/03/20 00:53:31;;;;;;;;;3.50;3.50;;;;;-146.03;100.00;60875.16;5013250;28;46420;-82
2022/03/20 00:55:56;;;;;;;;;3.25;1.50;;;;;-146.03;100.00;60875.16;5015176;28;45476;-83
2022/03/20 00:58:22;;;;;;;;;3.00;3.00;;;;;-146.03;100.00;60875.16;5014823;28;45554;-82
2022/03/20 01:00:47;;;;;;;;;2.00;2.00;;;;;-146.03;100.00;60875.16;5014437;28;46299;-83
2022/03/20 01:03:13;;;;;;;;;4.50;2.75;;;;;-146.03;100.00;60875.16;5015659;28;45236;-83
2022/03/20 01:05:38;;;;;;;;;3.50;3.50;;;;;-146.03;100.00;60875.16;5016637;28;45232;-83
2022/03/20 01:08:03;;;;;;;;;3.50;2.00;;;;;-146.03;100.00;60875.16;5009978;28;45486;-82
2022/03/20 01:10:29;;;;;;;;;4.00;3.00;;;;;-146.03;100.00;60875.16;5012313;28;46115;-82
2022/03/20 01:12:55;;;;;;;;;3.75;3.75;;;;;-146.03;100.00;60875.16;5011665;28;45482;-83
2022/03/20 01:15:21;;;;;;;;;3.00;2.00;;;;;-146.03;100.00;60875.16;5014398;28;45480;-83
2022/03/20 01:17:47;;;;;;;;;3.00;2.75;;;;;-146.03;100.00;60875.16;5013799;28;45474;-83
2022/03/20 01:20:14;;;;;;;;;3.25;3.25;;;;;-146.03;100.00;60875.16;5012808;28;45375;-83
2022/03/20 01:22:40;;;;;;;;;2.25;2.25;;;;;-146.03;100.00;60875.16;5011572;28;45671;-82
2022/03/20 01:25:08;;;;;;;;;3.00;3.00;;;;;-146.03;100.00;60875.16;5013805;28;45653;-83
2022/03/20 01:27:34;;;;;;;;;3.00;3.00;;;;;-146.03;100.00;60875.16;5011542;28;45529;-83
2022/03/20 01:29:59;;;;;;;;;2.00;2.00;;;;;-146.03;100.00;60875.16;5013590;28;45855;-82
2022/03/20 01:32:26;;;;;;;;;4.00;4.00;;;;;-146.03;100.00;60875.16;5013501;28;45505;-81
2022/03/20 01:34:52;;;;;;;;;3.00;2.00;;;;;-146.03;100.00;60875.16;5016076;28;45632;-82
2022/03/20 01:37:18;;;;;;;;;3.00;2.50;;;;;-146.03;100.00;60875.16;5015359;28;45472;-81
2022/03/20 01:39:43;;;;;;;;;3.25;3.00;;;;;-146.03;100.00;60875.16;5015362;28;45452;-82
2022/03/20 01:42:08;;;;;;;;;4.25;3.00;;;;;-146.03;100.00;60875.16;5015850;28;45604;-81
2022/03/20 01:44:36;;;;;;;;;3.00;2.75;;;;;-146.03;100.00;60875.16;5015894;28;45434;-82
2022/03/20 01:47:02;;;;;;;;;2.75;2.25;;;;;-146.03;100.00;60875.16;5016026;28;45284;-82
2022/03/20 01:49:27;;;;;;;;;3.25;2.75;;;;;-146.03;100.00;60875.16;5015593;28;45503;-82
2022/03/20 01:52:11;;;;;;;;;5.00;2.00;;;;;-146.03;100.00;60875.16;5015256;28;45474;-82
2022/03/20 01:54:47;;;;;;;;;3.00;3.00;;;;;-146.03;100.00;60875.16;5015506;28;45545;-82
2022/03/20 01:57:16;;;;;;;;;2.25;2.25;;;;;-146.03;100.00;60875.16;5014433;28;45489;-82
2022/03/20 01:59:43;;;;;;;;;4.50;2.00;;;;;-146.03;100.00;60875.16;5014484;28;46153;-81
2022/03/20 02:02:08;;;;;;;;;3.25;3.25;;;;;-146.03;100.00;60875.16;5014755;28;45406;-82
2022/03/20 02:04:36;;;;;;;;;2.00;2.00;;;;;-146.03;100.00;60875.16;5014568;28;45351;-81
2022/03/20 02:07:02;;;;;;;;;4.25;4.00;;;;;-146.03;100.00;60875.16;5014336;28;45513;-81
2022/03/20 02:09:27;;;;;;;;;2.25;2.25;;;;;-146.03;100.00;60875.16;5014225;28;45493;-82
2022/03/20 02:11:55;;;;;;;;;2.75;2.75;;;;;-146.03;100.00;60875.16;4996113;28;45523;-81
2022/03/20 02:14:21;;;;;;;;;3.50;3.50;;;;;-146.03;100.00;60875.16;4998018;28;45590;-82
2022/03/20 02:16:47;;;;;;;;;3.00;3.00;;;;;-146.03;100.00;60875.16;5015050;28;45484;-81
2022/03/20 02:19:15;;;;;;;;;3.00;3.00;;;;;-146.03;100.00;60875.16;5015016;28;45997;-82
2022/03/20 02:21:43;;;;;;;;;4.00;4.00;;;;;-146.03;100.00;60875.16;5005411;28;45679;-82
2022/03/20 02:24:30;;;;;;;;;4.00;3.00;;;;;-146.03;100.00;60875.16;5010446;28;45551;-82
2022/03/20 02:27:13;;;;;;;;;1.00;1.00;;;;;-146.03;100.00;60875.16;5008781;28;45788;-83
2022/03/20 02:29:39;;;;;;;;;4.75;4.00;;;;;-146.03;100.00;60875.16;5013189;28;45632;-82
2022/03/20 02:32:07;;;;;;;;;6.25;2.00;;;;;-146.03;100.00;60875.16;5008239;28;45792;-83
2022/03/20 02:34:32;;;;;;;;;3.00;3.00;;;;;-146.03;100.00;60875.16;5011520;28;45452;-82
2022/03/20 02:37:00;;;;;;;;;2.50;2.50;;;;;-146.03;100.00;60875.16;4994032;28;45729;-82
2022/03/20 02:39:27;;;;;;;;;3.00;3.00;;;;;-146.03;100.00;60875.16;5010652;28;46403;-83
2022/03/20 02:41:54;;;;;;;;;4.25;3.00;;;;;-146.03;100.00;60875.16;4991292;28;45526;-83
2022/03/20 02:44:20;;;;;;;;;4.50;3.25;;;;;-146.03;100.00;60875.16;5011950;28;45548;-83
2022/03/20 02:46:46;;;;;;;;;2.00;2.00;;;;;-146.03;100.00;60875.16;5009735;28;46207;-83
2022/03/20 02:49:13;;;;;;;;;3.75;3.75;;;;;-146.03;100.00;60875.16;5012453;28;45550;-83
2022/03/20 02:51:38;;;;;;;;;3.75;3.00;;;;;-146.03;100.00;60875.16;4987874;28;45722;-83
2022/03/20 02:54:04;;;;;;;;;5.75;3.25;;;;;-146.03;100.00;60875.16;5002195;28;45362;-83
2022/03/20 02:56:29;;;;;;;;;3.00;3.00;;;;;-146.03;100.00;60875.16;5003205;28;45801;-83
2022/03/20 02:58:55;;;;;;;;;4.00;3.75;;;;;-146.03;100.00;60875.16;5011927;28;46242;-83
2022/03/20 03:01:21;;;;;;;;;4.25;3.00;;;;;-146.03;100.00;60875.16;5009235;28;45575;-83
2022/03/20 03:03:46;;;;;;;;;4.25;4.25;;;;;-146.03;100.00;60875.16;5006126;28;45465;-83
2022/03/20 03:06:13;;;;;;;;;4.00;4.00;;;;;-146.03;100.00;60875.16;5007962;28;45285;-83
2022/03/20 03:11:22;;;;;;;;;4.00;3.00;;;;;-146.03;100.00;60875.16;5007415;28;45439;-83
2022/03/20 03:13:47;;;;;;;;;3.50;3.50;;;;;-146.03;100.00;60875.16;5012323;28;45390;-83
2022/03/20 03:16:15;;;;;;;;;4.00;4.00;;;;;-146.03;100.00;60875.16;5011089;28;46038;-83
2022/03/20 03:18:45;;;;;;;;;3.00;3.00;;;;;-146.03;100.00;60875.16;5008289;28;45387;-83
2022/03/20 03:21:12;;;;;;;;;6.75;4.25;;;;;-146.03;100.00;60875.16;5007813;28;45465;-83
2022/03/20 03:23:38;;;;;;;;;1.00;1.00;;;;;-146.03;100.00;60875.16;5006247;28;45430;-83
2022/03/20 03:26:04;;;;;;;;;3.00;3.00;;;;;-146.03;100.00;60875.16;5009248;28;45444;-83
2022/03/20 03:28:36;;;;;;;;;3.00;2.25;;;;;-146.03;100.00;60875.16;4994131;28;47351;-83
2022/03/20 03:31:07;;;;;;;;;5.00;3.00;;;;;-146.03;100.00;60875.16;5008985;28;45422;-83
2022/03/20 03:33:33;;;;;;;;;4.00;4.00;;;;;-146.03;100.00;60875.16;5008780;28;45487;-83
2022/03/20 03:35:58;;;;;;;;;4.75;3.25;;;;;-146.03;100.00;60875.16;4993998;28;45632;-83
2022/03/20 03:38:31;;;;;;;;;5.00;4.00;;;;;-146.03;100.00;60875.16;5009221;28;45622;-83
2022/03/20 03:40:56;;;;;;;;;4.75;4.75;;;;;-146.03;100.00;60875.16;5011056;28;45784;-82
2022/03/20 03:43:23;;;;;;;;;8.50;3.50;;;;;-146.03;100.00;60875.16;5011025;28;45513;-83
2022/03/20 03:45:48;;;;;;;;;6.50;4.50;;;;;-146.03;100.00;60875.16;5011335;28;46242;-83
2022/03/20 03:48:16;;;;;;;;;6.00;6.00;;;;;-146.03;100.00;60875.16;5006735;28;48294;-82
2022/03/20 03:50:44;;;;;;;;;4.75;3.75;;;;;-146.03;100.00;60875.16;5006681;28;45497;-83
2022/03/20 03:53:12;;;;;;;;;6.50;5.50;;;;;-146.03;100.00;60875.16;5005573;28;45407;-83
2022/03/20 03:55:43;;;;;;;;;10.00;6.75;;;;;-146.03;100.00;60875.16;5003127;28;45454;-83
2022/03/20 03:58:10;;;;;;;;;5.00;5.00;;;;;-146.03;100.00;60875.16;5007822;28;45303;-83
2022/03/20 04:00:35;;;;;;;;;4.25;4.00;;;;;-146.03;100.00;60875.16;5006578;28;45186;-83
2022/03/20 04:03:01;;;;;;;;;5.75;5.00;;;;;-146.03;100.00;60875.16;5008986;28;45536;-83
2022/03/20 04:05:28;;;;;;;;;6.25;6.00;;;;;-146.03;100.00;60875.16;4979887;28;45574;-83
2022/03/20 04:07:54;;;;;;;;;7.00;5.00;;;;;-146.03;100.00;60875.16;5004955;28;50642;-83
2022/03/20 04:10:19;;;;;;;;;4.50;4.50;;;;;-146.03;100.00;60875.16;5006941;28;45583;-82
2022/03/20 04:12:45;;;;;;;;;6.25;4.00;;;;;-146.03;100.00;60875.16;5000925;28;45462;-83
2022/03/20 04:15:12;;;;;;;;;8.50;6.00;;;;;-146.03;100.00;60875.16;5004801;28;45499;-83
2022/03/20 04:17:38;;;;;;;;;3.75;3.75;;;;;-146.03;100.00;60875.16;5007354;28;46094;-83
2022/03/20 04:20:06;;;;;;;;;7.25;4.50;;;;;-146.03;100.00;60875.16;5007275;28;45544;-82
2022/03/20 04:22:34;;;;;;;;;8.00;7.00;;;;;-146.03;100.00;60875.16;5011482;28;45794;-83
2022/03/20 04:24:59;;;;;;;;;9.00;5.00;;;;;-146.03;100.00;60875.16;5010511;28;45478;-83
2022/03/20 04:27:25;;;;;;;;;5.00;5.00;;;;;-146.03;100.00;60875.16;5010618;28;46894;-82
2022/03/20 04:29:52;;;;;;;;;3.50;3.00;;;;;-146.03;100.00;60875.16;4998811;28;45947;-83
2022/03/20 04:32:18;;;;;;;;;10.00;6.25;;;;;-146.03;100.00;60875.16;5010980;28;45477;-83
2022/03/20 04:34:43;;;;;;;;;7.25;5.75;;;;;-146.03;100.00;60875.16;5008800;28;45589;-83
2022/03/20 04:37:10;;;;;;;;;7.00;7.00;;;;;-146.03;100.00;60875.16;4996985;28;46135;-83
2022/03/20 04:39:37;;;;;;;;;5.50;4.50;;;;;-146.03;100.00;60875.16;5013635;28;45505;-83
2022/03/20 04:42:04;;;;;;;;;6.50;4.25;;;;;-146.03;100.00;60875.16;4997208;28;45502;-83
2022/03/20 04:44:30;;;;;;;;;6.50;6.50;;;;;-146.03;100.00;60875.16;5005062;28;45628;-83
2022/03/20 04:46:55;;;;;;;;;12.25;8.00;;;;;-146.03;100.00;60875.16;5009489;28;45643;-82
2022/03/20 05:00:18;;;;;;;;;5.00;4.75;;;;;-146.03;100.00;60875.16;5008449;28;45580;-82
2022/03/20 05:02:45;;;;;;;;;6.00;6.00;;;;;-146.03;100.00;60875.16;5014915;28;45461;-83
2022/03/20 05:05:10;;;;;;;;;7.75;6.25;;;;;-146.03;100.00;60875.16;5014664;28;45413;-82
2022/03/20 05:07:36;;;;;;;;;8.00;7.00;;;;;-146.03;100.00;60875.16;5011711;28;46289;-82
2022/03/20 05:15:30;;;;;;;;;8.00;8.00;;;;;-146.03;100.00;60875.16;5011557;28;45446;-82
2022/03/20 05:17:56;;;;;;;;;10.25;7.50;;;;;-146.03;100.00;60875.16;5009138;28;45390;-83
2022/03/20 05:20:23;;;;;;;;;7.75;4.75;;;;;-146.03;100.00;60875.16;5011030;28;45472;-82
2022/03/20 05:22:49;;;;;;;;;3.25;3.25;;;;;-146.03;100.00;60875.16;5013053;28;45403;-83
2022/03/20 05:25:16;;;;;;;;;7.75;7.75;;;;;-146.03;100.00;60875.16;5013010;28;45461;-83
2022/03/20 05:27:42;;;;;;;;;7.00;7.00;;;;;-146.03;100.00;60875.16;5009338;28;45505;-82
2022/03/20 05:30:07;;;;;;;;;5.50;5.50;;;;;-146.03;100.00;60875.16;5015218;28;45595;-83
2022/03/20 05:32:37;;;;;;;;;7.25;7.00;;;;;-146.03;100.00;60875.16;5007478;28;45333;-83
2022/03/20 05:35:08;;;;;;;;;4.75;3.75;;;;;-146.03;100.00;60875.16;5013182;28;45398;-83
2022/03/20 05:37:35;;;;;;;;;9.25;9.00;;;;;-146.03;100.00;60875.16;5012206;28;46257;-83
2022/03/20 05:40:02;;;;;;;;;5.25;4.75;;;;;-146.03;100.00;60875.16;5011133;28;45545;-83
2022/03/20 05:42:27;;;;;;;;;7.25;6.50;;;;;-146.03;100.00;60875.16;5013175;28;45321;-83
2022/03/20 05:44:53;;;;;;;;;5.00;4.75;;;;;-146.03;100.00;60875.16;5015741;28;46127;-83
2022/03/20 05:47:18;;;;;;;;;10.75;9.25;;;;;-146.03;100.00;60875.16;5008334;28;45481;-83
2022/03/20 05:49:43;;;;;;;;;6.00;6.00;;;;;-146.03;100.00;60875.16;5008698;28;45795;-83
2022/03/20 05:52:09;;;;;;;;;5.00;5.00;;;;;-146.03;100.00;60875.16;5010089;28;45429;-83
2022/03/20 05:54:35;;;;;;;;;7.00;6.50;;;;;-146.03;100.00;60875.16;5012717;28;45509;-83
2022/03/20 05:59:45;;;;;;;;;8.00;6.75;;;;;-146.03;100.00;60875.16;5010406;28;45500;-82
2022/03/20 06:02:11;;;;;;;;;7.00;5.25;;;;;-146.03;100.00;60875.16;5012759;28;45331;-83
2022/03/20 06:04:38;;;;;;;;;8.00;7.00;;;;;-146.03;100.00;60875.16;5014429;28;45898;-83
2022/03/20 06:07:05;;;;;;;;;6.25;6.25;;;;;-146.03;100.00;60875.16;5011293;28;45822;-82
2022/03/20 06:09:30;;;;;;;;;7.00;3.50;;;;;-146.03;100.00;60875.16;5009725;28;46117;-82
2022/03/20 06:11:56;;;;;;;;;9.50;7.50;;;;;-146.03;100.00;60875.16;5009417;28;46063;-83
2022/03/20 06:14:21;;;;;;;;;7.00;7.00;;;;;-146.03;100.00;60875.16;5009674;28;45591;-83
2022/03/20 06:16:48;;;;;;;;;10.00;9.00;;;;;-146.03;100.00;60875.16;5006701;28;51282;-83
2022/03/20 06:19:15;;;;;;;;;7.50;7.50;;;;;-146.03;100.00;60875.16;5004214;28;45878;-82
2022/03/20 06:21:41;;;;;;;;;14.75;10.00;;;;;-146.03;100.00;60875.16;4997949;28;45555;-82
2022/03/20 06:24:06;;;;;;;;;8.00;7.50;;;;;-146.03;100.00;60875.16;5016157;28;45247;-82
2022/03/20 06:26:32;;;;;;;;;7.00;6.25;;;;;-146.03;100.00;60875.16;5016253;28;45380;-82
2022/03/20 06:28:58;;;;;;;;;11.00;7.00;;;;;-146.03;100.00;60875.16;4986569;28;45860;-82
2022/03/20 06:31:23;;;;;;;;;9.50;8.75;;;;;-146.03;100.00;60875.16;5004870;28;45548;-82
2022/03/20 06:33:49;;;;;;;;;10.50;9.50;;;;;-146.03;100.00;60875.16;5004452;28;45442;-83
2022/03/20 06:36:14;;;;;;;;;8.50;8.50;;;;;-146.03;100.00;60875.16;5002738;28;50355;-82
2022/03/20 06:38:40;;;;;;;;;9.00;8.25;;;;;-146.03;100.00;60875.16;5000110;28;45572;-83
2022/03/20 06:41:08;;;;;;;;;8.25;7.75;;;;;-146.03;100.00;60875.16;5014517;28;45359;-83
2022/03/20 06:43:37;;;;;;;;;11.50;9.25;;;;;-146.03;100.00;60875.16;5005815;28;45557;-82
2022/03/20 06:46:05;;;;;;;;;11.50;8.25;;;;;-146.03;100.00;60875.16;5008986;28;47054;-83
2022/03/20 06:48:30;;;;;;;;;12.50;8.75;;;;;-146.03;100.00;60875.16;5015339;28;45493;-82
2022/03/20 06:50:56;;;;;;;;;13.75;13.75;;;;;-146.03;100.00;60875.16;5015918;28;45438;-83
2022/03/20 06:53:21;;;;;;;;;14.25;13.00;;;;;-146.03;100.00;60875.16;4998533;28;45387;-83
2022/03/20 06:55:48;;;;;;;;;13.50;11.75;;;;;-146.03;100.00;60875.16;5015396;28;45891;-83
2022/03/20 06:58:14;;;;;;;;;9.50;8.25;;;;;-146.03;100.00;60875.16;5015254;28;45277;-83
2022/03/20 07:00:40;;;;;;;;;12.50;10.00;;;;;-146.03;100.00;60875.16;5015455;28;45373;-82
2022/03/20 07:03:08;;;;;;;;;8.75;8.75;;;;;-146.03;100.00;60875.16;5014880;28;45963;-82
2022/03/20 07:05:35;;;;;;;;;15.75;12.75;;;;;-146.03;100.00;60875.16;5011990;28;46338;-82
2022/03/20 07:08:00;;;;;;;;;13.50;11.00;;;;;-146.03;100.00;60875.16;5015612;28;45450;-82
2022/03/20 07:10:27;;;;;;;;;17.50;16.25;;;;;-146.03;100.00;60875.16;5015106;28;45386;-82
2022/03/20 07:15:46;;;;;;;;;16.75;15.25;;;;;-146.03;100.00;60875.16;4914865;28;45497;-82
2022/03/20 07:18:17;;;;;;;;;16.00;14.25;;;;;-146.03;100.00;60875.16;4915230;28;45568;-82
2022/03/20 07:20:44;;;;;;;;;14.50;14.50;;;;;-146.03;100.00;60875.16;4915566;28;45556;-83
2022/03/20 07:23:10;;;;;;;;;14.00;12.75;;;;;-146.03;100.00;60875.16;4915674;28;45519;-82
2022/03/20 07:31:05;;;;;;;;;17.75;16.00;;;;;-146.03;100.00;60875.16;4914554;28;45592;-82
2022/03/20 07:33:30;;;;;;;;;19.75;14.00;;;;;-146.03;100.00;60875.16;4914950;28;45543;-82
2022/03/20 07:35:55;;;;;;;;;22.00;16.25;;;;;-146.03;100.00;60875.16;4931585;28;46079;-82
2022/03/20 07:38:21;;;;;;;;;15.25;15.25;;;;;-146.03;100.00;60875.16;4914574;28;45574;-82
2022/03/20 07:40:46;;;;;;;;;17.75;16.25;;;;;-146.03;100.00;60875.16;4915198;28;45809;-82
2022/03/20 07:43:12;;;;;;;;;20.75;17.75;;;;;-146.03;100.00;60875.16;4915089;28;46079;-83
2022/03/20 07:45:37;;;;;;;;;19.25;16.25;;;;;-146.03;100.00;60875.16;4913921;28;46228;-82
2022/03/20 07:48:03;;;;;;;;;21.25;18.00;;;;;-146.03;100.00;60875.16;4913591;28;47730;-82
2022/03/20 07:50:28;;;;;;;;;20.75;18.25;;;;;-146.03;100.00;60875.16;4915092;28;45592;-82
2022/03/20 07:52:56;;;;;;;;;21.00;17.00;;;;;-146.03;100.00;60875.16;4978849;28;45479;-82
2022/03/20 07:55:22;;;;;;;;;20.75;15.00;;;;;-146.03;100.00;60875.16;4995241;28;46467;-82
2022/03/20 07:57:47;;;;;;;;;16.50;15.50;;;;;-146.03;100.00;60875.16;5014284;28;45797;-82
2022/03/20 08:00:13;;;;;;;;;23.00;19.50;;;;;-146.03;100.00;60875.16;5014067;28;52150;-82
2022/03/20 08:02:39;;;;;;;;;24.50;21.00;;;;;-146.03;100.00;60875.16;5014006;28;45482;-82
2022/03/20 08:05:04;;;;;;;;;25.50;20.50;;;;;-146.03;100.00;60875.16;5014751;28;46046;-82
2022/03/20 08:07:37;;;;;;;;;22.75;20.00;;;;;-146.03;100.00;60875.16;5014006;28;45970;-82
2022/03/20 08:10:10;;;;;;;;;22.75;20.75;;;;;-146.03;100.00;60875.16;5014641;28;45929;-82
2022/03/20 08:12:36;;;;;;;;;24.50;22.25;;;;;-146.03;100.00;60875.16;5013198;28;45558;-82
2022/03/20 08:15:02;;;;;;;;;21.75;18.25;;;;;-146.03;100.00;60875.16;5013716;28;45430;-82
2022/03/20 08:17:29;;;;;;;;;15.75;11.00;;;;;-146.03;100.00;60875.16;5012892;28;45591;-81
2022/03/20 08:19:55;;;;;;;;;20.75;17.75;;;;;-146.03;100.00;60875.16;5011835;28;45561;-82
2022/03/20 08:22:20;;;;;;;;;23.50;23.00;;;;;-146.03;100.00;60875.16;5014327;28;45426;-82
2022/03/20 08:24:47;;;;;;;;;19.00;19.00;;;;;-146.03;100.00;60875.16;5013935;28;45946;-81
2022/03/20 08:27:12;;;;;;;;;23.50;20.50;;;;;-146.03;100.00;60875.16;5014107;28;45382;-82
2022/03/20 08:29:38;;;;;;;;;23.25;21.25;;;;;-146.03;100.00;60875.16;5014549;28;45330;-81
2022/03/20 08:32:03;;;;;;;;;22.50;21.00;;;;;-146.03;100.00;60875.16;5014426;28;45302;-82
2022/03/20 08:34:29;;;;;;;;;23.50;18.75;;;;;-146.03;100.00;60875.16;5012004;28;46184;-82
2022/03/20 08:36:55;;;;;;;;;21.75;20.00;;;;;-146.03;100.00;60875.16;4993721;28;45881;-81
2022/03/20 08:39:20;;;;;;;;;27.50;25.25;;;;;-146.03;100.00;60875.16;5011044;28;45454;-82
2022/03/20 08:41:47;;;;;;;;;29.25;27.25;;;;;-146.03;100.00;60875.16;5011733;28;45473;-82
2022/03/20 08:44:14;;;;;;;;;28.50;24.25;;;;;-146.03;100.00;60875.16;4997943;28;48223;-82
2022/03/20 08:46:39;;;;;;;;;31.25;25.25;;;;;-146.03;100.00;60875.16;5013572;28;45561;-82
2022/03/20 08:49:09;;;;;;;;;27.25;23.75;;;;;-146.03;100.00;60875.16;5012412;28;45455;-82
2022/03/20 08:51:34;;;;;;;;;25.75;24.75;;;;;-146.03;100.00;60875.16;5013677;28;45564;-82
2022/03/20 08:54:01;;;;;;;;;28.25;27.75;;;;;-146.03;100.00;60875.16;4995835;28;46119;-82
2022/03/20 08:56:28;;;;;;;;;32.00;29.00;;;;;-146.03;100.00;60875.16;5012257;28;45518;-82
2022/03/20 08:58:54;;;;;;;;;25.25;21.50;;;;;-146.03;100.00;60875.16;5012463;28;45423;-82
2022/03/20 09:01:19;;;;;;;;;28.50;24.50;;;;;-146.03;100.00;60875.16;5013587;28;45507;-82
2022/03/20 09:03:49;;;;;;;;;29.75;24.25;;;;;-146.03;100.00;60875.16;5013171;28;46139;-82
2022/03/20 09:06:15;;;;;;;;;31.75;29.50;;;;;-146.03;100.00;60875.16;5013511;28;45470;-82
2022/03/20 09:08:40;;;;;;;;;27.75;25.25;;;;;-146.03;100.00;60875.16;5014067;28;45388;-82
2022/03/20 09:11:05;;;;;;;;;26.75;26.75;;;;;-146.03;100.00;60875.16;5017708;28;45351;-82
2022/03/20 09:13:31;;;;;;;;;27.25;25.75;;;;;-146.03;100.00;60875.16;5016630;28;45374;-82
2022/03/20 09:21:26;;;;;;;;;23.25;21.75;;;;;-146.03;100.00;60875.16;5017357;28;45300;-82
2022/03/20 09:23:51;;;;;;;;;31.00;26.75;;;;;-146.03;100.00;60875.16;5017080;28;46621;-82
2022/03/20 09:26:17;;;;;;;;;27.50;24.25;;;;;-146.03;100.00;60875.16;5017275;28;45359;-82
2022/03/20 09:28:46;;;;;;;;;24.50;23.50;;;;;-146.03;100.00;60875.16;4995855;28;45589;-82
2022/03/20 09:31:13;;;;;;;;;26.75;22.75;;;;;-146.03;100.00;60875.16;5016920;28;45539;-82
2022/03/20 09:33:39;;;;;;;;;28.25;25.25;;;;;-146.03;100.00;60875.16;5016641;28;47240;-82
2022/03/20 09:36:04;;;;;;;;;30.25;27.25;;;;;-146.03;100.00;60875.16;5017182;28;45511;-82
2022/03/20 09:38:31;;;;;;;;;30.50;27.00;;;;;-146.03;100.00;60875.16;5017071;28;45352;-82
2022/03/20 09:40:58;;;;;;;;;27.50;23.00;;;;;-146.03;100.00;60875.16;5017433;28;45362;-82
2022/03/20 09:43:24;;;;;;;;;29.00;28.00;;;;;-146.03;100.00;60875.16;5016212;28;47104;-82
2022/03/20 09:45:52;;;;;;;;;25.25;25.00;;;;;-146.03;100.00;60875.16;5016531;28;45426;-82
2022/03/20 09:48:18;;;;;;;;;28.50;25.00;;;;;-146.03;100.00;60875.16;5016768;28;45437;-82
2022/03/20 09:50:45;;;;;;;;;25.50;24.25;;;;;-146.03;100.00;60875.16;5016865;28;45427;-82
2022/03/20 09:53:11;;;;;;;;;24.50;23.00;;;;;-146.03;100.00;60875.16;5016490;28;45335;-82
2022/03/20 09:55:36;;;;;;;;;26.25;23.50;;;;;-146.03;100.00;60875.16;5016481;28;49809;-82
2022/03/20 09:58:01;;;;;;;;;29.25;24.00;;;;;-146.03;100.00;60875.16;5016496;28;45583;-82
2022/03/20 10:00:27;;;;;;;;;26.25;24.25;;;;;-146.03;100.00;60875.16;5016795;28;45319;-82
2022/03/20 10:02:52;;;;;;;;;30.50;28.25;;;;;-146.03;100.00;60875.16;5016524;28;45360;-82
2022/03/20 10:05:23;;;;;;;;;27.75;26.00;;;;;-146.03;100.00;60875.16;5016638;28;45462;-82
2022/03/20 10:07:49;;;;;;;;;34.50;28.50;;;;;-146.03;100.00;60875.16;5016534;28;45351;-82
2022/03/20 10:10:22;;;;;;;;;36.75;25.75;;;;;-146.03;100.00;60875.16;5016540;28;45388;-82
2022/03/20 10:12:55;;;;;;;;;28.25;25.25;;;;;-146.03;100.00;60875.16;5015951;28;46300;-83
2022/03/20 10:15:31;;;;;;;;;29.00;28.00;;;;;-146.03;100.00;60875.16;4998462;28;45485;-82
2022/03/20 10:18:08;;;;;;;;;30.00;24.75;;;;;-146.03;100.00;60875.16;5015915;28;45341;-82
2022/03/20 10:20:42;;;;;;;;;29.25;27.75;;;;;-146.03;100.00;60875.16;5013212;28;45517;-82
2022/03/20 10:23:38;;;;;;;;;27.00;22.75;;;;;-146.03;100.00;60875.16;5014699;28;46015;-82
2022/03/20 10:26:07;;;;;;;;;24.00;20.50;;;;;-146.03;100.00;60875.16;4974030;28;45553;-82
2022/03/20 10:28:43;;;;;;;;;27.50;25.75;;;;;-146.03;100.00;60875.16;4973629;28;45561;-82
2022/03/20 10:31:15;;;;;;;;;24.25;24.25;;;;;-146.03;100.00;60875.16;4958006;28;45373;-82
2022/03/20 10:33:41;;;;;;;;;25.50;24.50;;;;;-146.03;100.00;60875.16;4974072;28;45407;-82
2022/03/20 10:36:18;;;;;;;;;24.75;22.00;;;;;-146.03;100.00;60875.16;4964757;28;45527;-82
2022/03/20 10:38:45;;;;;;;;;27.25;23.75;;;;;-146.03;100.00;60875.16;4968265;28;45605;-82
2022/03/20 10:41:26;;;;;;;;;22.25;21.25;;;;;-146.03;100.00;60875.16;4971778;28;45471;-82
2022/03/20 10:43:53;;;;;;;;;21.75;19.25;;;;;-146.03;100.00;60875.16;4971096;28;46742;-82
2022/03/20 10:46:29;;;;;;;;;18.00;17.00;;;;;-146.03;100.00;60875.16;4971425;28;45471;-83
2022/03/20 10:49:02;;;;;;;;;16.25;14.00;;;;;-146.03;100.00;60875.16;4966144;28;45514;-83
2022/03/20 10:51:38;;;;;;;;;18.00;16.25;;;;;-146.03;100.00;60875.16;4970835;28;45639;-82
2022/03/20 10:54:05;;;;;;;;;21.50;17.50;;;;;-146.03;100.00;60875.16;4970699;28;45649;-82
2022/03/20 10:56:32;;;;;;;;;13.00;11.00;;;;;-146.03;100.00;60875.16;4971833;28;45511;-83
2022/03/20 10:58:57;;;;;;;;;17.50;16.25;;;;;-146.03;100.00;60875.16;4972636;28;45568;-83
2022/03/20 11:01:36;;;;;;;;;13.50;13.50;;;;;-146.03;100.00;60875.16;4972564;28;45366;-82
2022/03/20 11:04:04;;;;;;;;;23.75;19.75;;;;;-146.03;100.00;60875.16;5009734;28;45331;-82
2022/03/20 11:06:29;;;;;;;;;16.25;16.25;;;;;-146.03;100.00;60875.16;5011843;28;45509;-82
2022/03/20 11:08:56;;;;;;;;;18.75;16.75;;;;;-146.03;100.00;60875.16;5011814;28;45382;-82
2022/03/20 11:11:24;;;;;;;;;16.50;14.25;;;;;-146.03;100.00;60875.16;5013677;28;45572;-82
2022/03/20 11:13:52;;;;;;;;;22.00;20.50;;;;;-146.03;100.00;60875.16;5013217;28;45646;-82
2022/03/20 11:16:23;;;;;;;;;24.00;22.00;;;;;-146.03;100.00;60875.16;5013016;28;45781;-82
2022/03/20 11:18:52;;;;;;;;;22.50;21.75;;;;;-146.03;100.00;60875.16;5013672;28;45621;-82
2022/03/20 11:21:22;;;;;;;;;19.00;19.00;;;;;-146.03;100.00;60875.16;5014158;28;45324;-82
2022/03/20 11:23:49;;;;;;;;;22.75;20.50;;;;;-146.03;100.00;60875.16;5013121;28;45506;-82
2022/03/20 11:26:16;;;;;;;;;26.25;23.00;;;;;-146.03;100.00;60875.16;5014394;28;45471;-82
2022/03/20 11:28:49;;;;;;;;;20.25;20.25;;;;;-146.03;100.00;60875.16;5013545;28;46083;-83
2022/03/20 11:31:15;;;;;;;;;21.50;18.50;;;;;-146.03;100.00;60875.16;5013193;28;45272;-83
2022/03/20 11:33:43;;;;;;;;;25.00;19.00;;;;;-146.03;100.00;60875.16;4992496;28;47538;-83
2022/03/20 11:36:09;;;;;;;;;20.75;20.75;;;;;-146.03;100.00;60875.16;5013470;28;45674;-83
2022/03/20 11:38:37;;;;;;;;;16.50;15.50;;;;;-146.03;100.00;60875.16;5013504;28;45377;-82